createdAt,value
2022-11-15T00:01:42.652Z,9.30
2022-11-15T00:04:27.894Z,11.10
2022-11-15T00:07:33.283Z,12.00
2022-11-15T00:10:17.957Z,11.40
2022-11-15T00:13:07.943Z,11.60
2022-11-15T00:15:53.063Z,12.60
2022-11-15T00:18:39.186Z,11.50
2022-11-15T00:21:24.218Z,13.40
2022-11-15T00:24:09.728Z,11.70
2022-11-15T00:26:54.547Z,12.30
2022-11-15T00:29:43.510Z,10.80
2022-11-15T00:32:32.715Z,11.10
2022-11-15T00:35:18.930Z,11.90
2022-11-15T00:38:04.030Z,12.70
2022-11-15T00:40:48.970Z,12.00
2022-11-15T00:43:34.748Z,11.90
2022-11-15T00:46:19.942Z,12.30
2022-11-15T00:49:04.928Z,14.10
2022-11-15T00:51:49.599Z,10.60
2022-11-15T00:54:34.622Z,9.50
2022-11-15T00:57:19.465Z,13.10
2022-11-15T01:00:05.194Z,11.20
2022-11-15T01:02:51.279Z,11.20
2022-11-15T01:05:38.372Z,9.00
2022-11-15T01:08:23.216Z,11.30
2022-11-15T01:11:11.853Z,11.80
2022-11-15T01:13:56.708Z,12.80
2022-11-15T01:16:42.690Z,11.40
2022-11-15T01:19:27.345Z,14.10
2022-11-15T01:22:12.523Z,13.30
2022-11-15T01:24:57.423Z,10.00
2022-11-15T01:27:42.352Z,11.00
2022-11-15T01:30:27.416Z,10.80
2022-11-15T01:33:12.126Z,11.70
2022-11-15T01:35:57.174Z,11.30
2022-11-15T01:38:42.673Z,12.10
2022-11-15T01:41:30.787Z,12.90
2022-11-15T01:44:34.056Z,9.50
2022-11-15T01:47:30.684Z,11.10
2022-11-15T01:50:21.329Z,11.20
2022-11-15T01:53:06.160Z,11.30
2022-11-15T01:55:51.442Z,12.70
2022-11-15T01:58:38.263Z,12.70
2022-11-15T02:01:25.889Z,11.80
2022-11-15T02:04:19.506Z,8.60
2022-11-15T02:07:06.540Z,10.60
2022-11-15T02:09:53.258Z,13.20
2022-11-15T02:12:38.819Z,12.60
2022-11-15T02:15:31.578Z,9.10
2022-11-15T02:18:32.235Z,9.80
2022-11-15T02:21:33.432Z,12.60
2022-11-15T02:24:46.026Z,6.00
2022-11-15T02:27:52.681Z,10.20
2022-11-15T02:30:54.463Z,12.20
2022-11-15T02:33:55.630Z,11.50
2022-11-15T02:36:58.469Z,11.40
2022-11-15T02:39:52.629Z,7.50
2022-11-15T02:43:08.152Z,10.80
2022-11-15T02:46:43.811Z,9.50
2022-11-15T02:49:32.810Z,10.30
2022-11-15T02:52:20.980Z,11.90
2022-11-15T02:55:31.655Z,11.50
2022-11-15T02:58:39.101Z,6.70
2022-11-15T03:01:32.690Z,9.40
2022-11-15T03:04:20.957Z,11.70
2022-11-15T03:10:00.885Z,9.60
2022-11-15T03:12:58.448Z,11.20
2022-11-15T03:16:17.821Z,8.30
2022-11-15T03:19:13.736Z,9.10
2022-11-15T03:22:03.116Z,11.40
2022-11-15T03:24:53.616Z,9.90
2022-11-15T03:27:43.522Z,6.70
2022-11-15T03:30:30.855Z,11.40
2022-11-15T03:33:16.961Z,10.90
2022-11-15T03:36:02.741Z,9.80
2022-11-15T03:38:48.435Z,6.70
2022-11-15T03:42:00.681Z,9.20
2022-11-15T03:45:13.903Z,9.60
2022-11-15T03:48:04.539Z,10.50
2022-11-15T03:50:49.883Z,8.90
2022-11-15T03:53:34.936Z,8.10
2022-11-15T03:56:20.581Z,10.50
2022-11-15T03:59:05.525Z,10.20
2022-11-15T04:01:50.421Z,7.50
2022-11-15T04:04:35.133Z,10.60
2022-11-15T04:07:20.381Z,6.50
2022-11-15T04:10:06.147Z,3.50
2022-11-15T04:12:51.100Z,6.60
2022-11-15T04:15:36.512Z,7.90
2022-11-15T04:18:21.557Z,7.30
2022-11-15T04:21:27.692Z,8.50
2022-11-15T04:24:12.448Z,10.30
2022-11-15T04:26:57.803Z,8.10
2022-11-15T04:29:43.042Z,8.70
2022-11-15T04:32:28.043Z,8.90
2022-11-15T04:35:13.103Z,10.00
2022-11-15T04:37:59.028Z,8.60
2022-11-15T04:40:43.923Z,7.80
2022-11-15T04:43:30.156Z,10.00
2022-11-15T04:46:15.142Z,10.90
2022-11-15T04:49:00.370Z,9.00
2022-11-15T04:51:45.636Z,9.00
2022-11-15T04:54:30.449Z,6.70
2022-11-15T04:57:15.731Z,7.50
2022-11-15T05:00:00.369Z,8.90
2022-11-15T05:03:03.872Z,7.10
2022-11-15T05:05:48.501Z,8.10
2022-11-15T05:08:33.541Z,8.10
2022-11-15T05:11:18.831Z,8.30
2022-11-15T05:14:03.564Z,8.50
2022-11-15T05:16:48.707Z,8.40
2022-11-15T05:19:33.808Z,8.80
2022-11-15T05:22:19.343Z,7.90
2022-11-15T05:25:05.070Z,8.30
2022-11-15T05:27:50.071Z,9.30
2022-11-15T05:30:35.175Z,6.50
2022-11-15T05:33:22.851Z,8.60
2022-11-15T05:36:22.304Z,9.10
2022-11-15T05:39:09.319Z,9.20
2022-11-15T05:41:59.705Z,8.60
2022-11-15T05:44:49.486Z,9.10
2022-11-15T05:47:37.172Z,10.30
2022-11-15T05:50:22.113Z,9.00
2022-11-15T05:53:08.313Z,7.90
2022-11-15T05:55:53.831Z,4.40
2022-11-15T05:58:38.634Z,8.50
2022-11-15T06:01:25.546Z,10.20
2022-11-15T06:04:10.695Z,9.50
2022-11-15T06:06:55.674Z,10.40
2022-11-15T06:09:41.184Z,7.40
2022-11-15T06:12:26.002Z,7.60
2022-11-15T06:15:10.978Z,8.10
2022-11-15T06:17:59.448Z,6.50
2022-11-15T06:20:44.391Z,4.80
2022-11-15T06:23:32.976Z,8.50
2022-11-15T06:26:18.318Z,8.30
2022-11-15T06:29:04.822Z,9.60
2022-11-15T06:31:49.746Z,8.60
2022-11-15T06:34:36.089Z,6.50
2022-11-15T06:37:21.031Z,7.10
2022-11-15T06:40:07.300Z,6.80
2022-11-15T06:42:58.198Z,6.70
2022-11-15T06:45:42.932Z,6.60
2022-11-15T06:48:29.932Z,7.00
2022-11-15T06:51:15.035Z,7.00
2022-11-15T06:54:00.130Z,6.60
2022-11-15T06:56:44.960Z,7.80
2022-11-15T06:59:29.827Z,6.80
2022-11-15T07:02:15.218Z,7.00
2022-11-15T07:05:00.304Z,7.60
2022-11-15T07:07:52.811Z,7.60
2022-11-15T07:10:37.737Z,7.40
2022-11-15T07:13:26.409Z,6.20
2022-11-15T07:16:12.028Z,6.60
2022-11-15T07:18:57.279Z,7.50
2022-11-15T07:21:42.423Z,7.60
2022-11-15T07:24:27.355Z,8.30
2022-11-15T07:27:12.374Z,7.70
2022-11-15T07:29:57.760Z,7.80
2022-11-15T07:32:42.805Z,8.10
2022-11-15T07:35:28.704Z,9.10
2022-11-15T07:38:15.275Z,7.90
2022-11-15T07:41:03.165Z,7.30
2022-11-15T07:43:51.873Z,9.20
2022-11-15T07:46:37.113Z,6.70
2022-11-15T07:49:22.233Z,6.80
2022-11-15T07:52:07.089Z,7.90
2022-11-15T07:54:52.043Z,8.10
2022-11-15T07:57:37.304Z,6.30
2022-11-15T08:00:22.775Z,7.00
2022-11-15T08:03:12.581Z,6.00
2022-11-15T08:05:57.720Z,7.90
2022-11-15T08:08:42.464Z,5.70
2022-11-15T08:11:27.162Z,7.00
2022-11-15T08:14:12.270Z,3.80
2022-11-15T08:16:56.996Z,7.50
2022-11-15T08:19:42.017Z,6.50
2022-11-15T08:22:26.828Z,6.10
2022-11-15T08:25:11.933Z,8.10
2022-11-15T08:28:00.600Z,9.00
2022-11-15T08:30:45.890Z,8.70
2022-11-15T08:33:33.064Z,8.10
2022-11-15T08:36:18.364Z,7.30
2022-11-15T08:39:03.394Z,6.00
2022-11-15T08:41:48.591Z,5.00
2022-11-15T08:44:33.632Z,5.80
2022-11-15T08:47:18.495Z,5.30
2022-11-15T08:50:03.671Z,7.50
2022-11-15T08:52:48.977Z,8.30
2022-11-15T08:55:37.523Z,8.50
2022-11-15T08:58:22.483Z,9.70
2022-11-15T09:01:18.348Z,9.70
2022-11-15T09:04:04.369Z,10.10
2022-11-15T09:06:49.621Z,7.50
2022-11-15T09:09:35.067Z,6.70
2022-11-15T09:12:19.778Z,8.30
2022-11-15T09:15:06.474Z,7.30
2022-11-15T09:17:51.320Z,8.00
2022-11-15T09:20:36.709Z,8.80
2022-11-15T09:23:24.614Z,9.50
2022-11-15T09:26:09.460Z,8.90
2022-11-15T09:28:54.388Z,8.10
2022-11-15T09:31:39.068Z,7.90
2022-11-15T09:34:24.197Z,8.60
2022-11-15T09:37:08.906Z,9.80
2022-11-15T09:39:53.532Z,9.40
2022-11-15T09:43:16.485Z,8.60
2022-11-15T09:46:32.699Z,8.20
2022-11-15T09:49:18.760Z,7.40
2022-11-15T09:52:24.131Z,8.70
2022-11-15T09:54:54.347Z,9.50
2022-11-15T09:58:04.259Z,10.00
2022-11-15T10:00:47.030Z,10.20
2022-11-15T10:03:17.040Z,8.10
2022-11-15T10:05:46.309Z,8.00
2022-11-15T10:08:28.320Z,8.20
2022-11-15T10:11:30.379Z,8.20
2022-11-15T10:13:50.506Z,8.50
2022-11-15T10:16:47.472Z,9.80
2022-11-15T10:19:29.069Z,11.10
2022-11-15T10:22:13.842Z,10.80
2022-11-15T10:24:45.440Z,10.40
2022-11-15T10:27:15.525Z,9.00
2022-11-15T10:29:47.337Z,8.90
2022-11-15T10:32:15.915Z,7.70
2022-11-15T10:34:42.758Z,9.60
2022-11-15T10:37:09.677Z,9.80
2022-11-15T10:39:36.318Z,10.60
2022-11-15T10:42:28.490Z,8.90
2022-11-15T10:44:55.755Z,10.10
2022-11-15T10:47:28.612Z,10.50
2022-11-15T10:49:56.871Z,9.90
2022-11-15T10:52:24.824Z,9.80
2022-11-15T10:55:04.975Z,7.00
2022-11-15T10:57:36.576Z,8.30
2022-11-15T11:00:07.684Z,9.30
2022-11-15T11:02:56.780Z,9.30
2022-11-15T11:05:42.521Z,9.40
2022-11-15T11:08:12.166Z,10.50
2022-11-15T11:10:51.362Z,9.80
2022-11-15T11:13:25.154Z,10.40
2022-11-15T11:16:10.781Z,10.60
2022-11-15T11:19:06.998Z,9.60
2022-11-15T11:22:12.517Z,8.80
2022-11-15T11:24:50.042Z,6.90
2022-11-15T11:27:32.898Z,9.60
2022-11-15T11:30:22.340Z,11.90
2022-11-15T11:33:16.783Z,11.50
2022-11-15T11:35:53.517Z,8.20
2022-11-15T11:38:34.383Z,9.50
2022-11-15T11:41:28.989Z,10.30
2022-11-15T11:44:18.500Z,9.10
2022-11-15T11:46:50.183Z,10.80
2022-11-15T11:49:23.452Z,9.70
2022-11-15T11:52:22.025Z,7.90
2022-11-15T11:54:58.941Z,8.90
2022-11-15T11:57:28.036Z,10.60
2022-11-15T12:00:01.896Z,11.20
2022-11-15T12:02:34.916Z,11.10
2022-11-15T12:05:17.576Z,9.60
2022-11-15T12:07:46.594Z,11.20
2022-11-15T12:10:29.042Z,12.00
2022-11-15T12:12:55.471Z,8.40
2022-11-15T12:15:54.007Z,8.40
2022-11-15T12:18:20.330Z,10.60
2022-11-15T12:20:55.808Z,10.50
2022-11-15T12:23:29.248Z,11.80
2022-11-15T12:26:03.536Z,11.50
2022-11-15T12:29:05.989Z,14.10
2022-11-15T12:31:49.275Z,11.50
2022-11-15T12:34:21.500Z,11.30
2022-11-15T12:36:50.124Z,10.80
2022-11-15T12:39:17.628Z,8.70
2022-11-15T12:42:07.067Z,10.20
2022-11-15T12:44:39.412Z,8.80
2022-11-15T12:47:26.054Z,9.00
2022-11-15T12:49:53.289Z,9.60
2022-11-15T12:52:20.623Z,11.70
2022-11-15T12:54:51.146Z,12.10
2022-11-15T12:57:20.348Z,12.90
2022-11-15T12:59:55.620Z,11.10
2022-11-15T13:02:23.343Z,9.70
2022-11-15T13:04:51.859Z,11.00
2022-11-15T13:07:39.334Z,10.20
2022-11-15T13:10:30.543Z,10.90
2022-11-15T13:12:59.424Z,8.80
2022-11-15T13:15:59.220Z,8.70
2022-11-15T13:18:34.298Z,11.80
2022-11-15T13:21:22.375Z,10.70
2022-11-15T13:23:53.405Z,12.30
2022-11-15T13:26:21.111Z,16.00
2022-11-15T13:28:52.221Z,14.10
2022-11-15T13:31:37.858Z,11.50
2022-11-15T13:34:44.060Z,12.60
2022-11-15T13:37:02.282Z,14.40
2022-11-15T13:39:30.130Z,12.70
2022-11-15T13:41:57.605Z,12.20
2022-11-15T13:44:31.587Z,8.80
2022-11-15T13:47:19.862Z,10.40
2022-11-15T13:49:47.283Z,12.80
2022-11-15T13:52:16.735Z,12.90
2022-11-15T13:57:44.864Z,12.30
2022-11-15T14:00:45.055Z,12.90
2022-11-15T14:03:27.922Z,12.30
2022-11-15T14:06:21.961Z,13.40
2022-11-15T14:08:59.462Z,12.20
2022-11-15T14:11:26.291Z,11.30
2022-11-15T14:14:07.938Z,9.00
2022-11-15T14:16:43.018Z,8.50
2022-11-15T14:19:21.641Z,9.60
2022-11-15T14:22:11.538Z,13.10
2022-11-15T14:24:39.322Z,13.80
2022-11-15T14:27:27.485Z,8.90
2022-11-15T14:29:54.759Z,12.80
2022-11-15T14:32:26.881Z,14.40
2022-11-15T14:35:01.203Z,15.10
2022-11-15T14:37:35.058Z,13.10
2022-11-15T14:40:04.454Z,13.00
2022-11-15T14:42:31.525Z,14.10
2022-11-15T14:44:58.583Z,9.90
2022-11-15T14:47:24.957Z,10.10
2022-11-15T14:49:51.325Z,11.40
2022-11-15T14:52:33.964Z,14.40
2022-11-15T14:55:02.622Z,14.50
2022-11-15T14:57:29.953Z,14.90
2022-11-15T14:59:57.129Z,14.60
2022-11-15T15:02:26.041Z,16.10
2022-11-15T15:04:53.254Z,19.20
2022-11-15T15:07:20.623Z,30.20
2022-11-15T15:09:47.262Z,23.90
2022-11-15T15:12:19.861Z,66.90
2022-11-15T15:14:47.866Z,56.30
2022-11-15T15:17:14.690Z,36.10
2022-11-15T15:19:41.701Z,27.90
2022-11-15T15:22:19.929Z,26.00
2022-11-15T15:24:46.659Z,36.90
2022-11-15T15:27:14.581Z,17.30
2022-11-15T15:29:41.344Z,15.80
2022-11-15T15:33:38.795Z,20.20
2022-11-15T15:36:10.344Z,14.30
2022-11-15T15:38:38.010Z,14.30
2022-11-15T15:41:10.489Z,13.80
2022-11-15T15:43:38.774Z,10.80
2022-11-15T15:46:11.200Z,15.70
2022-11-15T15:48:40.467Z,18.90
2022-11-15T15:51:14.318Z,15.40
2022-11-15T15:53:46.496Z,13.00
2022-11-15T15:56:14.311Z,13.50
2022-11-15T15:58:42.043Z,14.60
2022-11-15T16:01:09.907Z,12.20
2022-11-15T16:03:37.673Z,16.30
2022-11-15T16:06:06.888Z,12.40
2022-11-15T16:08:53.254Z,15.20
2022-11-15T16:11:22.628Z,14.60
2022-11-15T16:13:50.343Z,17.10
2022-11-15T16:16:19.047Z,23.00
2022-11-15T16:18:46.788Z,24.00
2022-11-15T16:21:14.638Z,23.70
2022-11-15T16:23:42.337Z,23.70
2022-11-15T16:26:28.468Z,19.80
2022-11-15T16:28:56.508Z,20.20
2022-11-15T16:31:24.206Z,15.80
2022-11-15T16:33:51.914Z,13.80
2022-11-15T16:36:28.474Z,18.80
2022-11-15T16:38:59.714Z,21.80
2022-11-15T16:41:27.640Z,21.20
2022-11-15T16:43:55.551Z,20.00
2022-11-15T16:46:25.881Z,22.00
2022-11-15T16:48:54.324Z,18.70
2022-11-15T16:51:23.579Z,21.30
2022-11-15T16:53:51.546Z,26.90
2022-11-15T16:56:27.329Z,27.30
2022-11-15T16:58:58.607Z,28.40
2022-11-15T17:01:33.041Z,23.70
2022-11-15T17:04:12.891Z,37.80
2022-11-15T17:06:42.732Z,18.90
2022-11-15T17:11:41.394Z,13.00
2022-11-15T17:14:10.475Z,14.20
2022-11-15T17:16:42.241Z,14.60
2022-11-15T17:19:18.228Z,15.90
2022-11-15T17:21:48.120Z,14.60
2022-11-15T17:24:17.231Z,16.50
2022-11-15T17:26:44.929Z,17.80
2022-11-15T17:29:12.681Z,14.30
2022-11-15T17:34:45.292Z,34.50
2022-11-15T17:37:13.054Z,14.80
2022-11-15T17:39:40.906Z,18.10
2022-11-15T17:42:09.423Z,12.30
2022-11-15T17:44:38.176Z,18.70
2022-11-15T17:47:05.911Z,14.90
2022-11-15T17:49:35.025Z,14.40
2022-11-15T17:52:02.716Z,11.40
2022-11-15T17:54:30.397Z,21.80
2022-11-15T17:56:58.105Z,16.90
2022-11-15T17:59:25.913Z,14.00
2022-11-15T18:01:56.170Z,13.30
2022-11-15T18:04:28.354Z,15.10
2022-11-15T18:06:56.494Z,17.30
2022-11-15T18:09:25.831Z,16.70
2022-11-15T18:11:55.095Z,18.60
2022-11-15T18:14:22.827Z,15.70
2022-11-15T18:16:50.706Z,14.10
2022-11-15T18:19:18.421Z,13.80
2022-11-15T18:22:00.527Z,16.00
2022-11-15T18:24:30.624Z,15.40
2022-11-15T18:26:59.429Z,13.90
2022-11-15T18:29:28.144Z,14.40
2022-11-15T18:31:56.409Z,14.20
2022-11-15T18:34:25.647Z,13.00
2022-11-15T18:36:53.854Z,12.00
2022-11-15T18:39:21.625Z,11.20
2022-11-15T18:41:49.683Z,12.70
2022-11-15T18:44:18.911Z,13.00
2022-11-15T18:46:46.913Z,15.70
2022-11-15T18:49:17.080Z,16.80
2022-11-15T18:51:44.904Z,16.70
2022-11-15T18:54:15.110Z,16.40
2022-11-15T18:56:47.060Z,13.80
2022-11-15T18:59:15.472Z,11.20
2022-11-15T19:01:48.152Z,15.50
2022-11-15T19:04:18.513Z,14.20
2022-11-15T19:06:48.395Z,13.50
2022-11-15T19:09:18.436Z,16.80
2022-11-15T19:11:48.197Z,17.00
2022-11-15T19:16:52.588Z,16.10
2022-11-15T19:19:27.788Z,14.30
2022-11-15T19:21:57.468Z,12.50
2022-11-15T19:24:27.196Z,14.30
2022-11-15T19:26:55.337Z,14.50
2022-11-15T19:29:23.076Z,15.40
2022-11-15T19:31:50.878Z,15.80
2022-11-15T19:34:18.658Z,16.00
2022-11-15T19:36:46.675Z,14.10
2022-11-15T19:39:15.409Z,9.80
2022-11-15T19:41:44.270Z,11.70
2022-11-15T19:44:13.178Z,20.00
2022-11-15T19:46:41.669Z,9.80
2022-11-15T19:49:11.199Z,14.20
2022-11-15T19:51:42.466Z,14.40
2022-11-15T19:54:10.886Z,14.40
2022-11-15T19:56:40.063Z,14.80
2022-11-15T19:59:08.927Z,13.80
2022-11-15T20:01:38.840Z,13.90
2022-11-15T20:04:08.270Z,13.20
2022-11-15T20:06:39.331Z,10.20
2022-11-15T20:09:08.596Z,12.20
2022-11-15T20:11:38.217Z,15.90
2022-11-15T20:14:07.892Z,15.70
2022-11-15T20:19:03.832Z,13.40
2022-11-15T20:21:31.630Z,11.20
2022-11-15T20:23:59.566Z,18.40
2022-11-15T20:26:27.412Z,11.10
2022-11-15T20:29:01.030Z,12.60
2022-11-15T20:31:30.391Z,11.00
2022-11-15T20:33:58.735Z,10.10
2022-11-15T20:36:26.543Z,10.50
2022-11-15T20:38:59.223Z,8.30
2022-11-15T20:41:27.697Z,11.50
2022-11-15T20:43:55.946Z,12.90
2022-11-15T20:46:24.027Z,10.20
2022-11-15T20:48:51.779Z,14.10
2022-11-15T20:51:20.281Z,13.50
2022-11-15T20:53:48.451Z,14.40
2022-11-15T20:56:18.911Z,7.50
2022-11-15T20:58:47.436Z,10.70
2022-11-15T21:01:17.276Z,9.70
2022-11-15T21:03:47.148Z,9.70
2022-11-15T21:06:14.986Z,9.80
2022-11-15T21:09:01.282Z,11.90
2022-11-15T21:11:47.789Z,11.80
2022-11-15T21:14:15.527Z,14.50
2022-11-15T21:16:43.335Z,12.20
2022-11-15T21:19:11.384Z,15.00
2022-11-15T21:21:39.401Z,15.20
2022-11-15T21:24:09.076Z,13.30
2022-11-15T21:31:33.024Z,12.80
2022-11-15T21:34:02.706Z,9.20
2022-11-15T21:38:58.209Z,6.40
2022-11-15T21:41:26.055Z,7.70
2022-11-15T21:44:00.784Z,11.60
2022-11-15T21:46:30.157Z,10.60
2022-11-15T21:48:58.594Z,10.10
2022-11-15T21:51:26.356Z,11.10
2022-11-15T21:53:55.730Z,10.40
2022-11-15T21:56:25.712Z,8.70
2022-11-15T21:58:54.274Z,9.60
2022-11-15T22:01:42.854Z,9.40
2022-11-15T22:04:10.613Z,5.70
2022-11-15T22:06:38.467Z,9.40
2022-11-15T22:09:06.975Z,11.40
2022-11-15T22:11:35.268Z,9.30
2022-11-15T22:14:03.497Z,6.70
2022-11-15T22:16:31.738Z,7.30
2022-11-15T22:18:59.973Z,6.00
2022-11-15T22:21:27.853Z,5.50
2022-11-15T22:23:55.901Z,7.40
2022-11-15T22:26:24.298Z,7.20
2022-11-15T22:28:53.806Z,7.20
2022-11-15T22:31:21.698Z,7.20
2022-11-15T22:33:49.517Z,7.90
2022-11-15T22:36:17.519Z,9.10
2022-11-15T22:38:45.386Z,9.20
2022-11-15T22:41:13.372Z,7.30
2022-11-15T22:43:41.618Z,7.80
2022-11-15T22:46:10.779Z,8.40
2022-11-15T22:48:39.610Z,8.40
2022-11-15T22:51:08.428Z,7.20
2022-11-15T22:53:36.291Z,6.30
2022-11-15T22:56:06.323Z,7.60
2022-11-15T22:58:34.553Z,6.60
2022-11-15T23:01:05.111Z,7.10
2022-11-15T23:03:34.146Z,5.30
2022-11-15T23:06:07.098Z,5.50
2022-11-15T23:08:35.404Z,5.50
2022-11-15T23:11:23.267Z,7.40
2022-11-15T23:13:52.388Z,6.60
2022-11-15T23:16:22.544Z,6.90
2022-11-15T23:18:54.456Z,5.90
2022-11-15T23:21:50.302Z,6.10
2022-11-15T23:24:18.958Z,5.80
2022-11-15T23:26:48.597Z,5.40
2022-11-15T23:29:18.826Z,6.30
2022-11-15T23:32:05.537Z,6.60
2022-11-15T23:34:36.967Z,6.60
2022-11-15T23:37:06.356Z,7.20
2022-11-15T23:39:34.228Z,5.90
2022-11-15T23:42:07.659Z,7.10
2022-11-15T23:44:37.339Z,7.90
2022-11-15T23:47:05.151Z,6.10
2022-11-15T23:49:33.062Z,6.70
2022-11-15T23:52:00.858Z,6.30
2022-11-15T23:54:28.669Z,6.40
2022-11-15T23:56:56.417Z,7.10
2022-11-15T23:59:24.371Z,6.20
